createdAt,value
2022-11-17T00:01:47.649Z,7.40
2022-11-17T00:04:49.741Z,7.40
2022-11-17T00:07:51.936Z,7.30
2022-11-17T00:10:54.096Z,7.40
2022-11-17T00:14:14.976Z,7.40
2022-11-17T00:17:17.249Z,7.40
2022-11-17T00:20:37.673Z,7.50
2022-11-17T00:23:50.223Z,7.60
2022-11-17T00:27:01.757Z,7.60
2022-11-17T00:30:05.227Z,7.50
2022-11-17T00:33:27.580Z,7.50
2022-11-17T00:36:29.685Z,7.60
2022-11-17T00:39:31.782Z,7.60
2022-11-17T00:42:33.870Z,7.80
2022-11-17T00:45:36.034Z,7.90
2022-11-17T00:48:38.119Z,7.90
2022-11-17T00:51:40.216Z,7.90
2022-11-17T00:54:42.305Z,7.90
2022-11-17T00:57:44.392Z,7.90
2022-11-17T01:00:49.649Z,7.90
2022-11-17T01:04:02.823Z,7.80
2022-11-17T01:07:05.438Z,7.90
2022-11-17T01:10:08.411Z,7.80
2022-11-17T01:13:10.517Z,7.80
2022-11-17T01:16:18.125Z,7.80
2022-11-17T01:19:20.339Z,7.80
2022-11-17T01:22:22.429Z,7.70
2022-11-17T01:25:24.506Z,7.70
2022-11-17T01:28:26.559Z,7.70
2022-11-17T01:31:30.976Z,7.60
2022-11-17T01:34:33.146Z,7.70
2022-11-17T01:37:35.224Z,7.70
2022-11-17T01:40:37.300Z,7.70
2022-11-17T01:43:41.593Z,7.80
2022-11-17T01:46:43.672Z,7.70
2022-11-17T01:49:45.807Z,7.70
2022-11-17T01:52:49.271Z,7.70
2022-11-17T01:55:56.351Z,7.70
2022-11-17T01:59:03.243Z,7.70
2022-11-17T02:02:05.355Z,7.80
2022-11-17T02:05:19.232Z,7.80
2022-11-17T02:08:22.882Z,7.80
2022-11-17T02:11:36.049Z,7.80
2022-11-17T02:14:38.377Z,7.80
2022-11-17T02:17:42.313Z,7.80
2022-11-17T02:21:38.397Z,7.80
2022-11-17T02:25:16.396Z,7.80
2022-11-17T02:28:31.809Z,7.80
2022-11-17T02:32:02.604Z,7.80
2022-11-17T02:35:48.773Z,7.70
2022-11-17T02:39:05.034Z,7.80
2022-11-17T02:42:59.891Z,7.70
2022-11-17T02:46:11.973Z,7.70
2022-11-17T02:49:37.039Z,7.50
2022-11-17T02:52:39.090Z,7.50
2022-11-17T02:55:41.129Z,7.50
2022-11-17T02:58:43.274Z,7.60
2022-11-17T03:02:16.083Z,7.50
2022-11-17T03:05:31.209Z,7.50
2022-11-17T03:08:50.409Z,7.60
2022-11-17T03:12:09.576Z,7.70
2022-11-17T03:15:50.527Z,7.80
2022-11-17T03:19:24.110Z,7.80
2022-11-17T03:23:01.768Z,7.90
2022-11-17T03:26:05.368Z,8.00
2022-11-17T03:29:10.446Z,8.20
2022-11-17T03:32:12.472Z,8.30
2022-11-17T03:35:18.793Z,8.40
2022-11-17T03:38:23.374Z,8.50
2022-11-17T03:41:26.126Z,8.60
2022-11-17T03:44:29.317Z,8.60
2022-11-17T03:47:31.422Z,8.70
2022-11-17T03:51:15.046Z,8.70
2022-11-17T03:54:17.111Z,8.70
2022-11-17T03:57:34.181Z,8.80
2022-11-17T04:00:36.518Z,8.80
2022-11-17T04:03:39.620Z,8.80
2022-11-17T04:06:41.677Z,8.90
2022-11-17T04:09:43.748Z,8.80
2022-11-17T04:13:06.643Z,8.80
2022-11-17T04:16:08.728Z,8.80
2022-11-17T04:19:10.854Z,8.70
2022-11-17T04:22:12.949Z,8.70
2022-11-17T04:25:35.072Z,8.60
2022-11-17T04:28:45.857Z,8.60
2022-11-17T04:31:48.013Z,8.60
2022-11-17T04:34:50.101Z,8.60
2022-11-17T04:37:52.222Z,8.60
2022-11-17T04:41:22.293Z,8.50
2022-11-17T04:44:28.530Z,8.50
2022-11-17T04:47:30.581Z,8.50
2022-11-17T04:50:32.589Z,8.50
2022-11-17T04:53:34.876Z,8.50
2022-11-17T04:56:37.383Z,8.50
2022-11-17T04:59:39.486Z,8.50
2022-11-17T05:02:41.614Z,8.50
2022-11-17T05:05:48.280Z,8.50
2022-11-17T05:08:50.749Z,8.50
2022-11-17T05:12:11.081Z,8.50
2022-11-17T05:15:33.084Z,8.50
2022-11-17T05:18:35.105Z,8.40
2022-11-17T05:21:37.258Z,8.40
2022-11-17T05:24:39.294Z,8.40
2022-11-17T05:27:41.316Z,8.40
2022-11-17T05:30:43.358Z,8.40
2022-11-17T05:33:45.409Z,8.40
2022-11-17T05:36:47.552Z,8.40
2022-11-17T05:39:49.605Z,8.50
2022-11-17T05:42:55.877Z,8.50
2022-11-17T05:45:59.142Z,8.50
2022-11-17T05:49:01.303Z,8.50
2022-11-17T05:52:03.321Z,8.50
2022-11-17T05:55:06.123Z,8.50
2022-11-17T05:58:25.319Z,8.50
2022-11-17T06:01:27.473Z,8.50
2022-11-17T06:04:29.700Z,8.50
2022-11-17T06:07:31.882Z,8.50
2022-11-17T06:10:34.698Z,8.50
2022-11-17T06:13:37.197Z,8.50
2022-11-17T06:16:42.385Z,8.50
2022-11-17T06:19:46.658Z,8.50
2022-11-17T06:22:48.846Z,8.50
2022-11-17T06:25:50.898Z,8.50
2022-11-17T06:28:53.035Z,8.50
2022-11-17T06:31:57.133Z,8.40
2022-11-17T06:34:59.391Z,8.50
2022-11-17T06:38:02.177Z,8.40
2022-11-17T06:41:08.917Z,8.40
2022-11-17T06:44:13.824Z,8.40
2022-11-17T06:47:15.887Z,8.40
2022-11-17T06:50:17.994Z,8.40
2022-11-17T06:53:20.386Z,8.40
2022-11-17T06:56:22.455Z,8.40
2022-11-17T06:59:24.562Z,8.40
2022-11-17T07:02:26.677Z,8.30
2022-11-17T07:05:28.803Z,8.30
2022-11-17T07:08:31.447Z,8.30
2022-11-17T07:11:36.281Z,8.30
2022-11-17T07:14:38.415Z,8.30
2022-11-17T07:17:40.503Z,8.30
2022-11-17T07:20:42.620Z,8.30
2022-11-17T07:23:47.443Z,8.30
2022-11-17T07:26:49.597Z,8.30
2022-11-17T07:29:51.713Z,8.30
2022-11-17T07:32:54.998Z,8.20
2022-11-17T07:36:02.199Z,8.30
2022-11-17T07:39:05.982Z,8.30
2022-11-17T07:42:08.155Z,8.40
2022-11-17T07:45:10.663Z,8.50
2022-11-17T07:48:12.782Z,8.60
2022-11-17T07:51:15.915Z,8.70
2022-11-17T07:54:43.087Z,8.70
2022-11-17T07:57:45.361Z,8.70
2022-11-17T08:00:47.526Z,8.70
2022-11-17T08:03:49.664Z,8.60
2022-11-17T08:06:51.929Z,8.70
2022-11-17T08:09:54.070Z,8.60
2022-11-17T08:12:56.192Z,8.40
2022-11-17T08:15:59.298Z,8.30
2022-11-17T08:19:01.451Z,8.30
2022-11-17T08:22:03.568Z,8.30
2022-11-17T08:25:06.272Z,8.30
2022-11-17T08:28:08.366Z,8.30
2022-11-17T08:31:10.494Z,8.30
2022-11-17T08:34:12.936Z,8.30
2022-11-17T08:37:15.046Z,8.30
2022-11-17T08:40:18.369Z,8.30
2022-11-17T08:43:20.471Z,8.30
2022-11-17T08:46:23.104Z,8.30
2022-11-17T08:49:25.331Z,8.30
2022-11-17T08:52:28.325Z,8.30
2022-11-17T08:55:30.460Z,8.30
2022-11-17T08:58:32.716Z,8.30
2022-11-17T09:01:34.960Z,8.40
2022-11-17T09:04:37.074Z,8.40
2022-11-17T09:07:39.209Z,8.40
2022-11-17T09:10:41.643Z,8.40
2022-11-17T09:13:45.658Z,8.40
2022-11-17T09:16:47.814Z,8.40
2022-11-17T09:19:49.911Z,8.40
2022-11-17T09:22:51.972Z,8.40
2022-11-17T09:25:54.091Z,8.40
2022-11-17T09:28:56.154Z,8.40
2022-11-17T09:31:58.241Z,8.40
2022-11-17T09:35:00.953Z,8.50
2022-11-17T09:38:03.107Z,8.50
2022-11-17T09:41:28.382Z,8.50
2022-11-17T09:44:40.738Z,8.40
2022-11-17T09:48:33.526Z,8.40
2022-11-17T09:51:25.273Z,8.50
2022-11-17T09:54:47.152Z,8.40
2022-11-17T09:57:53.617Z,8.50
2022-11-17T10:00:55.743Z,8.50
2022-11-17T10:04:00.069Z,8.50
2022-11-17T10:07:04.093Z,8.50
2022-11-17T10:10:06.942Z,8.50
2022-11-17T10:13:38.839Z,8.50
2022-11-17T10:16:57.921Z,8.50
2022-11-17T10:20:00.078Z,8.50
2022-11-17T10:23:02.145Z,8.50
2022-11-17T10:26:09.745Z,8.60
2022-11-17T10:29:14.116Z,8.60
2022-11-17T10:32:16.250Z,8.60
2022-11-17T10:35:20.430Z,8.60
2022-11-17T10:38:28.976Z,8.60
2022-11-17T10:41:39.230Z,8.60
2022-11-17T10:44:42.115Z,8.60
2022-11-17T10:47:44.206Z,8.70
2022-11-17T10:51:16.050Z,8.70
2022-11-17T10:54:18.010Z,8.80
2022-11-17T10:57:24.090Z,8.90
2022-11-17T11:00:32.841Z,9.00
2022-11-17T11:03:35.465Z,8.90
2022-11-17T11:06:37.887Z,9.00
2022-11-17T11:09:44.858Z,9.00
2022-11-17T11:13:16.895Z,9.10
2022-11-17T11:16:18.975Z,9.20
2022-11-17T11:19:21.417Z,9.20
2022-11-17T11:23:04.394Z,9.20
2022-11-17T11:26:47.550Z,9.20
2022-11-17T11:30:01.019Z,9.20
2022-11-17T11:33:39.151Z,9.30
2022-11-17T11:37:16.540Z,9.30
2022-11-17T11:40:31.999Z,9.20
2022-11-17T11:44:02.131Z,9.10
2022-11-17T11:47:28.122Z,9.10
2022-11-17T11:50:41.886Z,9.10
2022-11-17T11:54:01.682Z,9.10
2022-11-17T11:57:03.835Z,9.10
2022-11-17T12:00:13.316Z,9.10
2022-11-17T12:03:43.340Z,9.10
2022-11-17T12:07:23.065Z,9.10
2022-11-17T12:10:46.395Z,9.20
2022-11-17T12:13:53.981Z,9.20
2022-11-17T12:17:26.210Z,9.10
2022-11-17T12:20:31.270Z,9.20
2022-11-17T12:24:08.311Z,9.10
2022-11-17T12:27:35.238Z,9.10
2022-11-17T12:30:51.072Z,9.20
2022-11-17T12:33:53.099Z,9.10
2022-11-17T12:37:22.163Z,9.10
2022-11-17T12:40:51.052Z,9.20
2022-11-17T12:43:53.107Z,9.20
2022-11-17T12:46:56.204Z,9.20
2022-11-17T12:50:19.490Z,9.10
2022-11-17T12:53:24.482Z,9.10
2022-11-17T12:56:51.309Z,9.00
2022-11-17T13:00:20.514Z,8.90
2022-11-17T13:03:33.002Z,8.90
2022-11-17T13:06:36.599Z,8.90
2022-11-17T13:09:38.959Z,8.90
2022-11-17T13:12:41.014Z,8.90
2022-11-17T13:15:43.740Z,8.80
2022-11-17T13:18:48.894Z,8.80
2022-11-17T13:22:14.470Z,8.70
2022-11-17T13:25:23.405Z,8.80
2022-11-17T13:28:31.349Z,8.90
2022-11-17T13:31:33.595Z,8.90
2022-11-17T13:34:36.010Z,8.80
2022-11-17T13:37:38.138Z,8.80
2022-11-17T13:40:40.964Z,8.80
2022-11-17T13:43:43.078Z,8.80
2022-11-17T13:46:45.119Z,8.70
2022-11-17T13:49:47.540Z,8.70
2022-11-17T13:53:11.813Z,8.60
2022-11-17T13:56:32.493Z,8.70
2022-11-17T13:59:35.864Z,8.70
2022-11-17T14:02:37.943Z,8.60
2022-11-17T14:05:40.002Z,8.60
2022-11-17T14:08:44.023Z,8.60
2022-11-17T14:11:46.108Z,8.50
2022-11-17T14:14:48.178Z,8.50
2022-11-17T14:17:57.318Z,8.50
2022-11-17T14:21:10.842Z,8.40
2022-11-17T14:24:13.459Z,8.40
2022-11-17T14:27:27.585Z,8.30
2022-11-17T14:30:29.716Z,8.30
2022-11-17T14:33:31.780Z,8.20
2022-11-17T14:36:33.866Z,8.20
2022-11-17T14:39:35.954Z,8.30
2022-11-17T14:42:38.082Z,8.30
2022-11-17T14:45:40.129Z,8.40
2022-11-17T14:48:42.230Z,8.40
2022-11-17T14:51:49.634Z,8.40
2022-11-17T14:54:51.667Z,8.30
2022-11-17T14:57:53.703Z,8.30
2022-11-17T15:00:55.899Z,8.20
2022-11-17T15:04:04.132Z,8.30
2022-11-17T15:07:13.175Z,8.20
2022-11-17T15:10:15.253Z,8.20
2022-11-17T15:13:17.473Z,8.20
2022-11-17T15:16:19.626Z,8.20
2022-11-17T15:19:21.771Z,8.20
2022-11-17T15:22:23.926Z,8.20
2022-11-17T15:25:26.001Z,8.20
2022-11-17T15:28:30.499Z,8.10
2022-11-17T15:31:32.759Z,8.20
2022-11-17T15:34:37.528Z,8.10
2022-11-17T15:37:39.565Z,8.10
2022-11-17T15:40:41.709Z,8.10
2022-11-17T15:43:44.561Z,8.10
2022-11-17T15:46:47.778Z,8.00
2022-11-17T15:49:50.134Z,8.10
2022-11-17T15:53:07.579Z,8.00
2022-11-17T15:56:12.390Z,8.00
2022-11-17T15:59:14.879Z,8.00
2022-11-17T16:02:17.255Z,8.10
2022-11-17T16:05:19.311Z,8.10
2022-11-17T16:08:21.380Z,8.20
2022-11-17T16:11:24.610Z,8.10
2022-11-17T16:14:26.717Z,8.20
2022-11-17T16:17:28.772Z,8.10
2022-11-17T16:20:30.905Z,8.00
2022-11-17T16:23:55.927Z,8.00
2022-11-17T16:26:58.019Z,8.00
2022-11-17T16:30:00.111Z,8.00
2022-11-17T16:33:04.059Z,8.00
2022-11-17T16:36:07.043Z,8.00
2022-11-17T16:39:12.798Z,8.00
2022-11-17T16:42:14.887Z,8.00
2022-11-17T16:45:16.982Z,8.00
2022-11-17T16:48:19.092Z,8.00
2022-11-17T16:51:21.623Z,8.00
2022-11-17T16:54:23.692Z,8.00
2022-11-17T16:57:27.630Z,8.00
2022-11-17T17:00:30.030Z,8.00
2022-11-17T17:03:32.130Z,8.00
2022-11-17T17:06:34.961Z,8.00
2022-11-17T17:09:37.914Z,8.00
2022-11-17T17:12:39.963Z,8.00
2022-11-17T17:15:42.030Z,8.00
2022-11-17T17:18:44.234Z,8.00
2022-11-17T17:21:46.386Z,8.00
2022-11-17T17:24:48.462Z,7.90
2022-11-17T17:27:50.537Z,8.00
2022-11-17T17:30:55.613Z,8.00
2022-11-17T17:33:57.851Z,8.00
2022-11-17T17:36:59.914Z,8.00
2022-11-17T17:40:01.987Z,8.00
2022-11-17T17:43:04.048Z,8.00
2022-11-17T17:46:15.424Z,8.00
2022-11-17T17:49:19.392Z,8.00
2022-11-17T17:52:21.722Z,8.10
2022-11-17T17:55:23.770Z,8.00
2022-11-17T17:58:26.163Z,8.00
2022-11-17T18:01:33.419Z,8.00
2022-11-17T18:04:35.477Z,8.00
2022-11-17T18:07:37.579Z,8.10
2022-11-17T18:10:39.678Z,8.10
2022-11-17T18:13:42.658Z,8.10
2022-11-17T18:16:44.816Z,8.10
2022-11-17T18:19:46.885Z,8.10
2022-11-17T18:22:48.920Z,8.10
2022-11-17T18:25:50.979Z,8.10
2022-11-17T18:28:54.597Z,8.10
2022-11-17T18:31:56.714Z,8.10
2022-11-17T18:34:58.746Z,8.10
2022-11-17T18:38:00.815Z,8.10
2022-11-17T18:41:08.539Z,8.10
2022-11-17T18:44:14.473Z,8.10
2022-11-17T18:47:18.701Z,8.10
2022-11-17T18:50:20.804Z,8.20
2022-11-17T18:53:22.869Z,8.20
2022-11-17T18:56:35.689Z,8.20
2022-11-17T18:59:37.767Z,8.20
2022-11-17T19:02:39.854Z,8.20
2022-11-17T19:05:41.941Z,8.20
2022-11-17T19:08:44.115Z,8.20
2022-11-17T19:11:46.225Z,8.30
2022-11-17T19:14:48.343Z,8.20
2022-11-17T19:17:50.463Z,8.20
2022-11-17T19:20:52.582Z,8.20
2022-11-17T19:23:57.427Z,8.20
2022-11-17T19:26:59.581Z,8.20
2022-11-17T19:30:02.035Z,8.20
2022-11-17T19:33:04.187Z,8.20
2022-11-17T19:36:08.192Z,8.30
2022-11-17T19:39:12.091Z,8.30
2022-11-17T19:42:14.170Z,8.20
2022-11-17T19:45:17.332Z,8.30
2022-11-17T19:48:19.445Z,8.30
2022-11-17T19:51:24.056Z,8.20
2022-11-17T19:54:26.189Z,8.30
2022-11-17T19:57:28.284Z,8.20
2022-11-17T20:00:30.346Z,8.20
2022-11-17T20:03:34.358Z,8.20
2022-11-17T20:06:37.842Z,8.20
2022-11-17T20:09:39.934Z,8.30
2022-11-17T20:12:43.408Z,8.30
2022-11-17T20:15:45.498Z,8.20
2022-11-17T20:18:52.602Z,8.20
2022-11-17T20:21:59.683Z,8.20
2022-11-17T20:25:03.695Z,8.20
2022-11-17T20:28:05.971Z,8.30
2022-11-17T20:31:22.623Z,8.30
2022-11-17T20:34:24.842Z,8.50
2022-11-17T20:37:27.280Z,8.50
2022-11-17T20:40:30.654Z,8.50
2022-11-17T20:43:33.297Z,8.40
2022-11-17T20:46:35.414Z,8.40
2022-11-17T20:49:37.630Z,8.40
2022-11-17T20:52:39.927Z,8.40
2022-11-17T20:55:42.065Z,8.40
2022-11-17T20:58:44.304Z,8.40
2022-11-17T21:01:47.086Z,8.30
2022-11-17T21:04:49.198Z,8.40
2022-11-17T21:07:51.294Z,8.40
2022-11-17T21:10:57.405Z,8.30
2022-11-17T21:13:59.905Z,8.30
2022-11-17T21:17:02.338Z,8.40
2022-11-17T21:20:05.074Z,8.30
2022-11-17T21:23:07.335Z,8.30
2022-11-17T21:26:14.267Z,8.30
2022-11-17T21:29:16.455Z,8.50
2022-11-17T21:32:18.545Z,8.50
2022-11-17T21:35:20.982Z,8.50
2022-11-17T21:38:23.164Z,8.60
2022-11-17T21:41:27.681Z,8.60
2022-11-17T21:44:29.862Z,8.50
2022-11-17T21:47:31.947Z,8.40
2022-11-17T21:50:34.015Z,8.50
2022-11-17T21:53:36.116Z,8.40
2022-11-17T21:56:38.213Z,8.50
2022-11-17T21:59:40.419Z,8.60
2022-11-17T22:02:42.533Z,8.40
2022-11-17T22:05:44.767Z,8.40
2022-11-17T22:08:47.381Z,8.30
2022-11-17T22:11:51.844Z,8.30
2022-11-17T22:14:54.002Z,8.30
2022-11-17T22:17:56.142Z,8.30
2022-11-17T22:20:58.314Z,8.20
2022-11-17T22:24:00.587Z,8.20
2022-11-17T22:27:02.663Z,8.20
2022-11-17T22:30:05.519Z,8.20
2022-11-17T22:33:07.609Z,8.20
2022-11-17T22:36:09.973Z,8.20
2022-11-17T22:39:12.134Z,8.10
2022-11-17T22:42:15.452Z,8.10
2022-11-17T22:45:17.586Z,8.10
2022-11-17T22:48:19.693Z,8.10
2022-11-17T22:51:40.315Z,8.10
2022-11-17T22:54:42.514Z,8.10
2022-11-17T22:57:44.573Z,8.10
2022-11-17T23:00:47.251Z,8.10
2022-11-17T23:03:49.524Z,8.10
2022-11-17T23:06:51.850Z,8.10
2022-11-17T23:09:54.051Z,8.10
2022-11-17T23:12:56.150Z,8.00
2022-11-17T23:15:58.394Z,8.00
2022-11-17T23:19:00.491Z,8.00
2022-11-17T23:22:02.622Z,8.00
2022-11-17T23:25:05.198Z,8.00
2022-11-17T23:28:07.644Z,8.00
2022-11-17T23:31:14.017Z,8.00
2022-11-17T23:34:16.127Z,8.00
2022-11-17T23:37:18.238Z,8.00
2022-11-17T23:40:20.293Z,8.00
2022-11-17T23:43:22.422Z,8.10
2022-11-17T23:46:25.455Z,8.10
2022-11-17T23:49:27.794Z,8.10
2022-11-17T23:52:29.910Z,8.20
2022-11-17T23:55:32.510Z,8.30
2022-11-17T23:58:34.708Z,8.50
